<?xml version='1.0' encoding='UTF-8'?>
<gpx xmlns="http://www.topografix.com/GPX/1/1" creator="www.balnam.be" version="1.1" xmlns:xsi="http://www.w3.org/2001/XMLSchema-instance" xsi:schemaLocation="http://www.topografix.com/GPX/1/1 http://www.topografix.com/GPX/1/1/gpx.xsd">
<trk>
<name>nvssgi17</name>
<cmt>v</cmt>
<desc>Sugny Chemin n°i17 </desc>
<link href="https://chemins.be/sugny/chemin/i17"/><trkseg>
<trkpt lat="49.816780" lon="4.909250"><time>2026-05-02T22:37:49Z</time></trkpt>
<trkpt lat="49.816674" lon="4.909269"><time>2026-05-02T22:47:49Z</time></trkpt>
<trkpt lat="49.816555" lon="4.909380"><time>2026-05-02T22:57:49Z</time></trkpt>
<trkpt lat="49.816402" lon="4.909462"><time>2026-05-02T23:07:49Z</time></trkpt>
<trkpt lat="49.816298" lon="4.909509"><time>2026-05-02T23:17:49Z</time></trkpt>
<trkpt lat="49.816159" lon="4.909509"><time>2026-05-02T23:27:49Z</time></trkpt>
<trkpt lat="49.816124" lon="4.909467"><time>2026-05-02T23:37:49Z</time></trkpt>
<trkpt lat="49.816075" lon="4.909358"><time>2026-05-02T23:47:49Z</time></trkpt>
<trkpt lat="49.815978" lon="4.909314"><time>2026-05-02T23:57:49Z</time></trkpt>
<trkpt lat="49.815914" lon="4.909385"><time>2026-05-03T00:07:49Z</time></trkpt>
<trkpt lat="49.815800" lon="4.909482"><time>2026-05-03T00:17:49Z</time></trkpt>
<trkpt lat="49.815745" lon="4.909712"><time>2026-05-03T00:27:49Z</time></trkpt>
<trkpt lat="49.815616" lon="4.909921"><time>2026-05-03T00:37:49Z</time></trkpt>
<trkpt lat="49.815574" lon="4.909958"><time>2026-05-03T00:47:49Z</time></trkpt>
<trkpt lat="49.815497" lon="4.909980"><time>2026-05-03T00:57:49Z</time></trkpt>
<trkpt lat="49.815398" lon="4.909958"><time>2026-05-03T01:07:49Z</time></trkpt>
<trkpt lat="49.815319" lon="4.909856"><time>2026-05-03T01:17:49Z</time></trkpt>
<trkpt lat="49.815198" lon="4.909735"><time>2026-05-03T01:27:49Z</time></trkpt>
<trkpt lat="49.815113" lon="4.909688"><time>2026-05-03T01:37:49Z</time></trkpt>
<trkpt lat="49.815037" lon="4.909663"><time>2026-05-03T01:47:49Z</time></trkpt>
<trkpt lat="49.814962" lon="4.909767"><time>2026-05-03T01:57:49Z</time></trkpt>
<trkpt lat="49.814935" lon="4.909869"><time>2026-05-03T02:07:49Z</time></trkpt>
<trkpt lat="49.814928" lon="4.909960"><time>2026-05-03T02:17:49Z</time></trkpt>
<trkpt lat="49.815049" lon="4.910181"><time>2026-05-03T02:27:49Z</time></trkpt>
<trkpt lat="49.815094" lon="4.910580"><time>2026-05-03T02:37:49Z</time></trkpt>
<trkpt lat="49.815087" lon="4.910702"><time>2026-05-03T02:47:49Z</time></trkpt>
<trkpt lat="49.815392" lon="4.911926"><time>2026-05-03T02:57:49Z</time></trkpt>
</trkseg>
</trk>
</gpx>